createdAt,value
2018-07-08T00:01:08.351Z,3.40
2018-07-08T00:03:36.312Z,3.10
2018-07-08T00:06:04.492Z,3.50
2018-07-08T00:08:32.566Z,2.87
2018-07-08T00:11:00.518Z,4.00
2018-07-08T00:13:28.550Z,2.80
2018-07-08T00:15:56.893Z,2.80
2018-07-08T00:18:25.351Z,3.40
2018-07-08T00:20:54.574Z,3.33
2018-07-08T00:23:23.472Z,3.17
2018-07-08T00:25:51.512Z,2.47
2018-07-08T00:28:19.571Z,4.57
2018-07-08T00:30:47.661Z,3.23
2018-07-08T00:33:15.661Z,3.07
2018-07-08T00:35:43.486Z,3.20
2018-07-08T00:38:11.681Z,2.90
2018-07-08T00:40:39.679Z,2.73
2018-07-08T00:43:07.691Z,3.97
2018-07-08T00:45:35.639Z,2.53
2018-07-08T00:48:03.594Z,3.60
2018-07-08T00:50:31.760Z,3.20
2018-07-08T00:52:59.812Z,3.07
2018-07-08T00:55:27.976Z,3.30
2018-07-08T00:57:56.042Z,3.13
2018-07-08T01:00:33.577Z,3.27
2018-07-08T01:03:02.855Z,3.00
2018-07-08T01:05:31.325Z,3.20
2018-07-08T01:08:00.129Z,2.97
2018-07-08T01:10:28.370Z,2.63
2018-07-08T01:12:56.838Z,2.73
2018-07-08T01:15:26.188Z,3.13
2018-07-08T01:17:54.239Z,2.80
2018-07-08T01:20:22.660Z,2.37
2018-07-08T01:22:51.022Z,3.00
2018-07-08T01:25:29.373Z,2.47
2018-07-08T01:27:57.319Z,3.17
2018-07-08T01:30:25.386Z,3.43
2018-07-08T01:32:53.398Z,2.90
2018-07-08T01:35:21.524Z,2.93
2018-07-08T01:37:49.695Z,3.03
2018-07-08T01:40:17.792Z,3.80
2018-07-08T01:42:45.863Z,3.13
2018-07-08T01:45:13.807Z,3.33
2018-07-08T01:47:41.986Z,3.17
2018-07-08T01:50:10.018Z,2.80
2018-07-08T01:52:38.098Z,2.83
2018-07-08T01:55:06.118Z,2.80
2018-07-08T01:57:34.118Z,3.40
2018-07-08T02:00:02.131Z,3.30
2018-07-08T02:02:30.175Z,3.73
2018-07-08T02:04:58.136Z,3.30
2018-07-08T02:07:26.302Z,3.10
2018-07-08T02:09:54.552Z,2.90
2018-07-08T02:12:22.567Z,3.40
2018-07-08T02:14:50.612Z,3.20
2018-07-08T02:17:18.864Z,3.20
2018-07-08T02:19:47.311Z,3.17
2018-07-08T02:22:15.384Z,3.83
2018-07-08T02:24:43.370Z,3.43
2018-07-08T02:27:11.348Z,3.23
2018-07-08T02:29:39.334Z,3.30
2018-07-08T02:32:07.362Z,3.63
2018-07-08T02:34:35.318Z,3.50
2018-07-08T02:37:03.752Z,3.37
2018-07-08T02:39:31.999Z,2.93
2018-07-08T02:42:00.091Z,3.30
2018-07-08T02:44:28.040Z,3.40
2018-07-08T02:46:56.438Z,3.10
2018-07-08T02:49:24.401Z,4.23
2018-07-08T02:51:52.395Z,3.40
2018-07-08T02:54:20.716Z,3.30
2018-07-08T02:56:48.827Z,3.10
2018-07-08T02:59:16.996Z,3.50
2018-07-08T03:01:45.162Z,3.47
2018-07-08T03:04:13.152Z,3.97
2018-07-08T03:06:41.147Z,3.37
2018-07-08T03:09:11.011Z,3.50
2018-07-08T03:11:39.274Z,3.27
2018-07-08T03:14:07.646Z,4.20
2018-07-08T03:16:35.747Z,3.10
2018-07-08T03:19:03.827Z,3.50
2018-07-08T03:21:31.868Z,3.13
2018-07-08T03:23:59.905Z,3.10
2018-07-08T03:26:27.867Z,3.60
2018-07-08T03:28:55.952Z,3.20
2018-07-08T03:31:23.899Z,3.17
2018-07-08T03:33:51.925Z,3.57
2018-07-08T03:36:19.883Z,3.90
2018-07-08T03:38:47.963Z,3.70
2018-07-08T03:41:16.043Z,3.27
2018-07-08T03:43:43.885Z,3.23
2018-07-08T03:46:12.439Z,3.87
2018-07-08T03:48:40.611Z,3.47
2018-07-08T03:51:08.630Z,4.07
2018-07-08T03:53:36.605Z,3.33
2018-07-08T03:56:04.792Z,3.50
2018-07-08T03:58:32.777Z,4.20
2018-07-08T04:01:00.736Z,4.20
2018-07-08T04:03:28.752Z,3.60
2018-07-08T04:05:56.707Z,3.40
2018-07-08T04:08:24.679Z,3.47
2018-07-08T04:10:52.991Z,3.03
2018-07-08T04:13:21.134Z,4.00
2018-07-08T04:15:49.080Z,3.60
2018-07-08T04:18:17.118Z,3.40
2018-07-08T04:20:45.076Z,3.57
2018-07-08T04:23:12.973Z,3.43
2018-07-08T04:25:40.927Z,3.80
2018-07-08T04:28:09.002Z,3.90
2018-07-08T04:30:36.963Z,3.70
2018-07-08T04:33:05.255Z,4.03
2018-07-08T04:35:33.211Z,3.53
2018-07-08T04:38:01.274Z,3.33
2018-07-08T04:40:29.268Z,3.87
2018-07-08T04:42:57.265Z,4.10
2018-07-08T04:45:25.276Z,4.80
2018-07-08T04:47:53.416Z,3.70
2018-07-08T04:50:21.371Z,3.57
2018-07-08T04:52:49.383Z,3.93
2018-07-08T04:55:17.344Z,4.30
2018-07-08T04:57:45.219Z,3.53
2018-07-08T05:00:14.450Z,3.50
2018-07-08T05:02:42.511Z,3.57
2018-07-08T05:05:10.563Z,3.60
2018-07-08T05:07:38.742Z,2.93
2018-07-08T05:10:06.832Z,3.67
2018-07-08T05:12:34.919Z,3.50
2018-07-08T05:15:03.124Z,3.07
2018-07-08T05:17:31.075Z,4.17
2018-07-08T05:19:59.205Z,2.90
2018-07-08T05:22:27.199Z,3.77
2018-07-08T05:24:55.124Z,4.43
2018-07-08T05:27:23.108Z,4.33
2018-07-08T05:29:51.456Z,4.03
2018-07-08T05:32:20.459Z,3.50
2018-07-08T05:34:48.276Z,3.30
2018-07-08T05:37:16.254Z,3.97
2018-07-08T05:39:44.234Z,3.73
2018-07-08T05:42:12.298Z,3.37
2018-07-08T05:44:40.335Z,4.30
2018-07-08T05:47:08.290Z,3.73
2018-07-08T05:49:36.395Z,3.97
2018-07-08T05:52:05.170Z,3.20
2018-07-08T05:54:33.244Z,3.83
2018-07-08T05:57:01.410Z,4.37
2018-07-08T05:59:29.286Z,3.53
2018-07-08T06:01:57.284Z,4.03
2018-07-08T06:04:25.070Z,4.00
2018-07-08T06:06:53.472Z,4.90
2018-07-08T06:09:21.598Z,4.73
2018-07-08T06:11:49.734Z,5.10
2018-07-08T06:14:17.823Z,4.83
2018-07-08T06:16:45.957Z,4.77
2018-07-08T06:19:14.611Z,4.62
2018-07-08T06:21:42.659Z,5.10
2018-07-08T06:24:10.677Z,5.07
2018-07-08T06:26:38.758Z,5.47
2018-07-08T06:29:06.731Z,5.40
2018-07-08T06:31:34.578Z,5.97
2018-07-08T06:34:02.551Z,5.80
2018-07-08T06:36:30.686Z,4.70
2018-07-08T06:38:58.511Z,5.43
2018-07-08T06:41:26.526Z,5.80
2018-07-08T06:43:54.380Z,6.03
2018-07-08T06:46:22.414Z,6.57
2018-07-08T06:48:50.375Z,5.73
2018-07-08T06:51:18.306Z,5.70
2018-07-08T06:53:46.607Z,6.17
2018-07-08T06:56:14.793Z,6.27
2018-07-08T06:58:42.825Z,6.77
2018-07-08T07:01:10.701Z,7.23
2018-07-08T07:03:38.676Z,6.30
2018-07-08T07:06:06.691Z,7.43
2018-07-08T07:08:34.703Z,7.63
2018-07-08T07:11:02.751Z,7.40
2018-07-08T07:13:30.852Z,7.40
2018-07-08T07:15:59.414Z,7.53
2018-07-08T07:18:27.290Z,7.53
2018-07-08T07:20:55.118Z,7.30
2018-07-08T07:23:23.117Z,6.70
2018-07-08T07:25:51.085Z,6.73
2018-07-08T07:28:19.046Z,6.53
2018-07-08T07:30:47.097Z,6.80
2018-07-08T07:33:15.379Z,7.03
2018-07-08T07:35:43.531Z,6.60
2018-07-08T07:38:11.596Z,7.23
2018-07-08T07:40:40.008Z,7.10
2018-07-08T07:43:08.031Z,5.73
2018-07-08T07:45:36.311Z,6.40
2018-07-08T07:48:04.771Z,7.10
2018-07-08T07:50:32.744Z,6.97
2018-07-08T07:53:00.712Z,7.07
2018-07-08T07:55:28.691Z,7.67
2018-07-08T07:57:56.675Z,7.27
2018-07-08T08:00:24.750Z,6.30
2018-07-08T08:02:52.706Z,6.17
2018-07-08T08:05:20.578Z,7.10
2018-07-08T08:07:48.607Z,7.30
2018-07-08T08:10:17.446Z,7.70
2018-07-08T08:12:45.462Z,8.00
2018-07-08T08:15:13.342Z,7.57
2018-07-08T08:17:41.294Z,7.17
2018-07-08T08:20:09.450Z,7.50
2018-07-08T08:22:37.447Z,7.37
2018-07-08T08:25:05.439Z,8.00
2018-07-08T08:27:33.439Z,7.30
2018-07-08T08:30:01.446Z,7.03
2018-07-08T08:32:29.253Z,7.43
2018-07-08T08:35:01.676Z,7.30
2018-07-08T08:37:31.955Z,7.17
2018-07-08T08:39:59.988Z,6.50
2018-07-08T08:42:28.267Z,8.37
2018-07-08T08:44:57.568Z,7.80
2018-07-08T08:47:26.324Z,8.57
2018-07-08T08:49:55.763Z,8.00
2018-07-08T08:52:23.602Z,8.30
2018-07-08T08:54:51.892Z,7.20
2018-07-08T08:57:19.933Z,7.60
2018-07-08T08:59:47.995Z,8.93
2018-07-08T09:02:15.985Z,8.27
2018-07-08T09:04:44.408Z,8.20
2018-07-08T09:07:13.739Z,8.10
2018-07-08T09:09:41.827Z,7.73
2018-07-08T09:12:10.411Z,8.30
2018-07-08T09:14:38.808Z,9.17
2018-07-08T09:17:06.887Z,7.77
2018-07-08T09:19:34.943Z,8.33
2018-07-08T09:22:03.020Z,8.53
2018-07-08T09:24:31.049Z,8.83
2018-07-08T09:26:59.041Z,9.03
2018-07-08T09:29:27.068Z,8.03
2018-07-08T09:31:55.089Z,8.50
2018-07-08T09:34:23.119Z,7.23
2018-07-08T09:36:51.208Z,7.80
2018-07-08T09:39:19.612Z,8.60
2018-07-08T09:41:47.740Z,7.83
2018-07-08T09:44:16.535Z,7.83
2018-07-08T09:46:45.771Z,8.40
2018-07-08T09:49:14.003Z,8.13
2018-07-08T09:51:43.614Z,7.70
2018-07-08T09:54:11.765Z,8.00
2018-07-08T09:56:39.947Z,8.40
2018-07-08T09:59:08.094Z,7.27
2018-07-08T10:01:42.265Z,8.17
2018-07-08T10:04:11.957Z,7.53
2018-07-08T10:06:40.472Z,8.40
2018-07-08T10:09:10.281Z,8.17
2018-07-08T10:11:38.688Z,8.80
2018-07-08T10:14:15.056Z,7.87
2018-07-08T10:16:43.403Z,8.33
2018-07-08T10:19:12.676Z,8.28
2018-07-08T10:21:40.759Z,9.30
2018-07-08T10:24:09.056Z,8.40
2018-07-08T10:26:37.608Z,7.77
2018-07-08T10:29:06.312Z,6.78
2018-07-08T10:31:46.131Z,8.27
2018-07-08T10:34:15.840Z,7.67
2018-07-08T10:36:44.216Z,8.70
2018-07-08T10:39:13.335Z,7.70
2018-07-08T10:41:41.732Z,9.30
2018-07-08T10:44:10.239Z,8.40
2018-07-08T10:46:39.299Z,7.60
2018-07-08T10:49:07.719Z,8.10
2018-07-08T10:51:35.927Z,9.13
2018-07-08T10:54:04.116Z,9.00
2018-07-08T10:56:32.296Z,10.47
2018-07-08T10:59:00.602Z,8.93
2018-07-08T11:01:30.002Z,9.87
2018-07-08T11:03:59.235Z,11.30
2018-07-08T11:06:27.308Z,12.25
2018-07-08T11:08:55.303Z,10.20
2018-07-08T11:11:23.311Z,10.53
2018-07-08T11:13:52.743Z,10.37
2018-07-08T11:16:22.029Z,10.90
2018-07-08T11:18:49.967Z,9.93
2018-07-08T11:21:18.034Z,10.83
2018-07-08T11:23:46.310Z,9.93
2018-07-08T11:26:14.411Z,9.77
2018-07-08T11:28:42.571Z,10.90
2018-07-08T11:31:10.655Z,10.70
2018-07-08T11:33:38.760Z,9.80
2018-07-08T11:36:06.898Z,10.17
2018-07-08T11:38:34.844Z,9.30
2018-07-08T11:41:03.015Z,10.00
2018-07-08T11:43:31.150Z,10.50
2018-07-08T11:45:59.177Z,9.60
2018-07-08T11:48:27.377Z,9.73
2018-07-08T11:50:56.023Z,9.17
2018-07-08T11:53:24.141Z,9.23
2018-07-08T11:55:52.338Z,9.27
2018-07-08T11:58:20.444Z,8.90
2018-07-08T12:00:48.485Z,8.50
2018-07-08T12:03:16.897Z,8.63
2018-07-08T12:05:45.097Z,9.50
2018-07-08T12:08:13.293Z,9.00
2018-07-08T12:10:41.364Z,9.50
2018-07-08T12:13:09.435Z,9.00
2018-07-08T12:15:37.759Z,8.13
2018-07-08T12:18:07.441Z,12.00
2018-07-08T12:20:35.895Z,8.40
2018-07-08T12:23:03.983Z,12.03
2018-07-08T12:25:32.006Z,8.90
2018-07-08T12:28:00.255Z,9.40
2018-07-08T12:30:31.448Z,11.03
2018-07-08T12:32:59.481Z,10.50
2018-07-08T12:35:28.767Z,10.23
2018-07-08T12:37:56.856Z,9.83
2018-07-08T12:40:25.068Z,9.63
2018-07-08T12:42:53.215Z,10.97
2018-07-08T12:45:21.358Z,13.17
2018-07-08T12:47:50.434Z,8.73
2018-07-08T12:50:18.605Z,11.63
2018-07-08T12:52:48.204Z,12.43
2018-07-08T12:55:16.599Z,9.53
2018-07-08T12:57:44.849Z,10.40
2018-07-08T13:00:13.288Z,12.70
2018-07-08T13:02:42.884Z,8.95
2018-07-08T13:05:11.040Z,7.60
2018-07-08T13:07:39.129Z,6.97
2018-07-08T13:10:07.109Z,7.57
2018-07-08T13:12:35.077Z,8.90
2018-07-08T13:15:03.263Z,7.80
2018-07-08T13:17:32.145Z,8.20
2018-07-08T13:20:00.401Z,11.00
2018-07-08T13:22:28.548Z,9.40
2018-07-08T13:24:56.813Z,8.60
2018-07-08T13:27:24.896Z,8.13
2018-07-08T13:29:53.008Z,8.23
2018-07-08T13:32:21.280Z,7.37
2018-07-08T13:34:49.513Z,10.07
2018-07-08T13:37:17.752Z,8.90
2018-07-08T13:39:46.154Z,8.27
2018-07-08T13:42:14.712Z,7.17
2018-07-08T13:44:42.897Z,6.50
2018-07-08T13:47:10.881Z,8.87
2018-07-08T13:49:38.939Z,8.30
2018-07-08T13:52:07.114Z,7.50
2018-07-08T13:54:35.308Z,7.83
2018-07-08T13:57:03.446Z,7.33
2018-07-08T13:59:32.260Z,7.87
2018-07-08T14:02:00.230Z,7.47
2018-07-08T14:04:28.470Z,7.10
2018-07-08T14:06:56.700Z,6.73
2018-07-08T14:09:25.178Z,8.07
2018-07-08T14:11:54.303Z,8.30
2018-07-08T14:14:23.191Z,8.63
2018-07-08T14:16:51.764Z,6.53
2018-07-08T14:19:20.917Z,7.30
2018-07-08T14:21:49.135Z,8.00
2018-07-08T14:24:17.832Z,6.70
2018-07-08T14:26:46.945Z,7.90
2018-07-08T14:29:16.296Z,6.10
2018-07-08T14:31:44.502Z,10.50
2018-07-08T14:34:13.160Z,8.40
2018-07-08T14:36:42.251Z,7.33
2018-07-08T14:39:11.306Z,6.80
2018-07-08T14:41:42.528Z,6.50
2018-07-08T14:44:10.580Z,7.10
2018-07-08T14:46:38.762Z,9.67
2018-07-08T14:49:06.830Z,7.43
2018-07-08T14:51:35.156Z,7.80
2018-07-08T14:54:03.175Z,8.60
2018-07-08T14:56:31.308Z,7.07
2018-07-08T14:58:59.407Z,6.47
2018-07-08T15:01:27.692Z,6.60
2018-07-08T15:03:57.243Z,6.13
2018-07-08T15:06:27.856Z,6.10
2018-07-08T15:08:55.896Z,7.33
2018-07-08T15:11:26.271Z,8.03
2018-07-08T15:13:55.670Z,8.03
2018-07-08T15:16:24.146Z,6.93
2018-07-08T15:18:52.332Z,8.25
2018-07-08T15:21:20.434Z,6.27
2018-07-08T15:23:48.896Z,8.70
2018-07-08T15:26:16.967Z,5.50
2018-07-08T15:28:45.379Z,6.70
2018-07-08T15:31:13.866Z,6.50
2018-07-08T15:33:41.871Z,5.80
2018-07-08T15:36:09.981Z,5.60
2018-07-08T15:38:38.078Z,5.90
2018-07-08T15:41:07.380Z,6.10
2018-07-08T15:43:35.595Z,6.47
2018-07-08T15:46:03.679Z,5.80
2018-07-08T15:48:32.061Z,5.50
2018-07-08T15:51:00.520Z,6.10
2018-07-08T15:53:28.807Z,6.60
2018-07-08T15:55:57.001Z,5.57
2018-07-08T15:58:25.421Z,5.53
2018-07-08T16:00:54.690Z,6.80
2018-07-08T16:03:22.646Z,6.20
2018-07-08T16:05:51.027Z,6.20
2018-07-08T16:08:19.026Z,5.40
2018-07-08T16:10:48.008Z,5.00
2018-07-08T16:13:15.975Z,5.73
2018-07-08T16:15:44.676Z,6.30
2018-07-08T16:18:12.735Z,6.53
2018-07-08T16:20:40.911Z,6.83
2018-07-08T16:23:08.938Z,8.27
2018-07-08T16:25:37.179Z,5.13
2018-07-08T16:28:05.077Z,4.90
2018-07-08T16:30:33.247Z,5.53
2018-07-08T16:33:01.707Z,5.50
2018-07-08T16:35:29.744Z,5.77
2018-07-08T16:37:57.853Z,5.73
2018-07-08T16:40:25.904Z,7.40
2018-07-08T16:42:55.349Z,5.80
2018-07-08T16:45:24.469Z,8.57
2018-07-08T16:47:53.051Z,9.20
2018-07-08T16:50:21.869Z,8.00
2018-07-08T16:52:52.696Z,6.30
2018-07-08T16:55:20.751Z,5.13
2018-07-08T16:57:48.856Z,5.53
2018-07-08T17:00:17.031Z,5.37
2018-07-08T17:02:45.313Z,4.93
2018-07-08T17:05:13.980Z,5.73
2018-07-08T17:07:43.082Z,4.53
2018-07-08T17:10:11.921Z,5.37
2018-07-08T17:12:40.813Z,5.00
2018-07-08T17:15:08.835Z,6.20
2018-07-08T17:17:37.333Z,9.33
2018-07-08T17:20:06.563Z,4.80
2018-07-08T17:22:37.728Z,6.70
2018-07-08T17:25:05.782Z,4.37
2018-07-08T17:27:34.006Z,6.63
2018-07-08T17:30:03.609Z,5.97
2018-07-08T17:32:31.903Z,4.63
2018-07-08T17:35:00.228Z,7.17
2018-07-08T17:37:28.613Z,6.70
2018-07-08T17:39:56.746Z,5.07
2018-07-08T17:42:25.101Z,5.60
2018-07-08T17:44:53.040Z,4.80
2018-07-08T17:47:21.913Z,5.30
2018-07-08T17:49:50.108Z,4.70
2018-07-08T17:52:18.316Z,5.13
2018-07-08T17:54:46.885Z,4.77
2018-07-08T17:57:14.957Z,4.37
2018-07-08T17:59:42.990Z,5.63
2018-07-08T18:02:12.165Z,3.80
2018-07-08T18:04:40.227Z,5.60
2018-07-08T18:07:08.711Z,4.67
2018-07-08T18:09:36.708Z,6.40
2018-07-08T18:12:05.886Z,4.23
2018-07-08T18:14:36.057Z,4.73
2018-07-08T18:17:04.173Z,6.10
2018-07-08T18:19:33.039Z,6.30
2018-07-08T18:22:01.411Z,4.60
2018-07-08T18:24:31.551Z,4.90
2018-07-08T18:26:59.561Z,4.70
2018-07-08T18:29:27.785Z,5.20
2018-07-08T18:31:56.584Z,5.00
2018-07-08T18:34:24.600Z,4.53
2018-07-08T18:36:53.146Z,4.07
2018-07-08T18:39:21.516Z,4.17
2018-07-08T18:41:49.410Z,5.87
2018-07-08T18:44:17.757Z,4.83
2018-07-08T18:46:46.008Z,13.07
2018-07-08T18:49:14.386Z,7.90
2018-07-08T18:51:42.535Z,6.20
2018-07-08T18:54:10.712Z,4.57
2018-07-08T18:56:39.189Z,4.40
2018-07-08T18:59:07.468Z,4.80
2018-07-08T19:01:35.412Z,4.60
2018-07-08T19:04:03.494Z,4.40
2018-07-08T19:06:31.500Z,4.70
2018-07-08T19:09:00.347Z,5.20
2018-07-08T19:11:28.534Z,6.30
2018-07-08T19:13:56.759Z,8.80
2018-07-08T19:16:24.739Z,6.20
2018-07-08T19:18:52.770Z,5.10
2018-07-08T19:21:20.771Z,5.33
2018-07-08T19:23:48.920Z,5.90
2018-07-08T19:26:17.033Z,16.03
2018-07-08T19:28:46.227Z,6.87
2018-07-08T19:31:14.375Z,11.50
2018-07-08T19:33:42.809Z,12.63
2018-07-08T19:36:11.167Z,9.60
2018-07-08T19:38:39.272Z,5.33
2018-07-08T19:41:07.311Z,6.67
2018-07-08T19:43:35.439Z,5.20
2018-07-08T19:46:03.535Z,4.87
2018-07-08T19:48:31.932Z,4.90
2018-07-08T19:51:00.189Z,5.00
2018-07-08T19:53:28.271Z,4.90
2018-07-08T19:55:56.482Z,5.47
2018-07-08T19:58:24.495Z,5.47
2018-07-08T20:00:53.495Z,6.80
2018-07-08T20:03:21.574Z,6.00
2018-07-08T20:05:49.677Z,6.43
2018-07-08T20:08:17.937Z,5.90
2018-07-08T20:10:46.277Z,5.63
2018-07-08T20:13:14.153Z,6.00
2018-07-08T20:15:42.341Z,5.40
2018-07-08T20:18:10.811Z,5.30
2018-07-08T20:20:38.921Z,5.70
2018-07-08T20:23:07.025Z,5.33
2018-07-08T20:25:35.096Z,5.47
2018-07-08T20:28:03.165Z,5.67
2018-07-08T20:30:31.266Z,5.77
2018-07-08T20:32:59.276Z,6.83
2018-07-08T20:35:27.910Z,5.60
2018-07-08T20:37:56.163Z,4.93
2018-07-08T20:40:24.300Z,5.50
2018-07-08T20:42:52.602Z,5.57
2018-07-08T20:45:21.785Z,5.10
2018-07-08T20:47:49.922Z,5.20
2018-07-08T20:50:17.914Z,5.70
2018-07-08T20:52:46.920Z,5.37
2018-07-08T20:55:14.887Z,5.20
2018-07-08T20:57:42.821Z,5.23
2018-07-08T21:00:12.869Z,6.00
2018-07-08T21:02:40.966Z,6.07
2018-07-08T21:05:09.104Z,6.33
2018-07-08T21:07:37.303Z,5.80
2018-07-08T21:10:05.599Z,5.77
2018-07-08T21:12:33.888Z,6.13
2018-07-08T21:15:02.022Z,5.50
2018-07-08T21:17:30.088Z,5.73
2018-07-08T21:19:58.256Z,5.40
2018-07-08T21:22:26.509Z,5.47
2018-07-08T21:24:55.085Z,5.70
2018-07-08T21:27:23.536Z,6.07
2018-07-08T21:29:51.814Z,5.60
2018-07-08T21:32:19.963Z,5.27
2018-07-08T21:34:48.230Z,5.90
2018-07-08T21:37:16.568Z,6.00
2018-07-08T21:39:44.905Z,5.80
2018-07-08T21:42:13.256Z,5.87
2018-07-08T21:44:41.356Z,5.67
2018-07-08T21:47:09.486Z,5.70
2018-07-08T21:49:37.677Z,6.10
2018-07-08T21:52:05.880Z,5.43
2018-07-08T21:54:34.427Z,5.50
2018-07-08T21:57:02.718Z,5.40
2018-07-08T21:59:30.802Z,5.27
2018-07-08T22:02:01.375Z,5.20
2018-07-08T22:04:29.977Z,5.90
2018-07-08T22:07:03.805Z,5.50
2018-07-08T22:09:32.353Z,4.80
2018-07-08T22:12:00.660Z,4.90
2018-07-08T22:17:03.243Z,5.40
2018-07-08T22:19:31.302Z,6.00
2018-07-08T22:21:59.416Z,8.00
2018-07-08T22:24:27.451Z,5.20
2018-07-08T22:26:55.258Z,5.67
2018-07-08T22:29:23.378Z,5.10
2018-07-08T22:31:51.465Z,5.90
2018-07-08T22:34:20.533Z,5.97
2018-07-08T22:36:48.630Z,5.63
2018-07-08T22:39:16.706Z,7.53
2018-07-08T22:41:44.958Z,5.87
2018-07-08T22:44:12.940Z,5.47
2018-07-08T22:46:41.295Z,5.03
2018-07-08T22:49:09.724Z,5.30
2018-07-08T22:51:37.964Z,5.90
2018-07-08T22:54:06.000Z,5.13
2018-07-08T22:56:33.882Z,5.23
2018-07-08T22:59:01.747Z,4.77
2018-07-08T23:01:41.098Z,5.30
2018-07-08T23:04:09.164Z,4.80
2018-07-08T23:06:38.219Z,4.20
2018-07-08T23:09:06.457Z,4.50
2018-07-08T23:11:34.439Z,5.27
2018-07-08T23:14:03.635Z,5.07
2018-07-08T23:16:31.695Z,4.63
2018-07-08T23:19:00.704Z,4.60
2018-07-08T23:21:29.332Z,4.87
2018-07-08T23:23:57.340Z,4.67
2018-07-08T23:26:25.403Z,4.63
2018-07-08T23:28:53.476Z,5.17
2018-07-08T23:31:21.600Z,4.60
2018-07-08T23:33:49.735Z,4.83
2018-07-08T23:36:17.704Z,5.00
2018-07-08T23:38:45.845Z,4.60
2018-07-08T23:41:14.000Z,5.60
2018-07-08T23:43:42.115Z,4.87
2018-07-08T23:46:10.129Z,4.93
2018-07-08T23:48:38.940Z,4.70
2018-07-08T23:51:06.899Z,5.43
2018-07-08T23:53:34.803Z,5.30
2018-07-08T23:56:02.836Z,5.13
2018-07-08T23:58:30.920Z,5.63
